Time;durP1;ratioP1;P1;durP2;ratioP2;P2;SDS_P1;SDS_P2;PMS_P1;PMS_P2;Temp;Humidity;BMP_temperature;BMP_pressure;BME280_temperature;BME280_humidity;BME280_pressure;Samples;Min_cycle;Max_cycle;Signal;HPM_P1;HPM_P2
2023/07/21 00:00:22;;;;;;;10.83;9.70;;;18.30;1.00;;;;;;4935703;29;20929;-83
2023/07/21 00:03:15;;;;;;;;;;;;;;;;;;;;;
2023/07/21 00:05:44;;;;;;;12.57;9.80;;;18.30;1.00;;;;;;4958286;28;20547;-83
2023/07/21 00:08:30;;;;;;;;;;;;;;;;;;;;;
2023/07/21 00:11:14;;;;;;;10.70;9.67;;;18.20;1.00;;;;;;4955296;28;20512;-83
2023/07/21 00:14:13;;;;;;;10.90;9.90;;;18.20;1.00;;;;;;4951826;28;22489;-83
2023/07/21 00:17:37;;;;;;;;;;;;;;;;;;;;;
2023/07/21 00:23:31;;;;;;;9.37;8.53;;;18.20;23.90;;;;;;4953263;28;20438;-83
2023/07/21 00:26:19;;;;;;;9.27;8.47;;;18.10;1.00;;;;;;4953907;28;20479;-84
2023/07/21 00:28:59;;;;;;;8.80;8.07;;;18.10;1.00;;;;;;4955014;28;20525;-83
2023/07/21 00:31:46;;;;;;;9.63;8.73;;;18.00;1.00;;;;;;4954377;28;20473;-85
2023/07/21 00:34:40;;;;;;;10.80;8.60;;;17.90;67.80;;;;;;4940791;29;20513;-84
2023/07/21 00:37:38;;;;;;;10.07;7.80;;;17.80;99.90;;;;;;4947389;28;20463;-84
2023/07/21 00:40:31;;;;;;;11.03;8.40;;;17.80;99.90;;;;;;4958890;28;20454;-84
2023/07/21 00:43:08;;;;;;;9.33;8.53;;;17.80;99.90;;;;;;4939838;29;20454;-84
2023/07/21 00:45:40;;;;;;;11.93;8.90;;;17.80;99.90;;;;;;4956174;28;20454;-84
2023/07/21 00:48:12;;;;;;;9.50;8.60;;;17.80;99.90;;;;;;4956029;28;20455;-83
2023/07/21 00:50:50;;;;;;;10.70;8.43;;;17.70;99.90;;;;;;4939355;28;20490;-83
2023/07/21 00:53:16;;;;;;;9.37;8.43;;;17.70;99.90;;;;;;4944846;29;20442;-83
2023/07/21 00:55:47;;;;;;;10.00;9.20;;;17.70;99.90;;;;;;4945233;29;20521;-83
2023/07/21 00:58:24;;;;;;;10.50;9.50;;;17.70;99.90;;;;;;4942297;28;20194;-83
2023/07/21 01:00:52;;;;;;;10.80;9.80;;;17.70;99.90;;;;;;4955463;28;20437;-83
2023/07/21 01:03:25;;;;;;;13.87;10.30;;;17.70;1.00;;;;;;4963608;28;20446;-83
2023/07/21 01:06:06;;;;;;;12.13;11.13;;;17.70;1.00;;;;;;4950122;29;21125;-84
2023/07/21 01:08:31;;;;;;;12.47;11.20;;;17.60;16.60;;;;;;4944990;28;21067;-85
2023/07/21 01:11:10;;;;;;;12.10;11.00;;;17.50;99.90;;;;;;4965107;28;20477;-83
2023/07/21 01:13:42;;;;;;;10.10;9.30;;;17.50;99.90;;;;;;4945811;29;20273;-84
2023/07/21 01:16:28;;;;;;;11.90;10.70;;;17.60;99.90;;;;;;4946354;29;20478;-83
2023/07/21 01:19:27;;;;;;;11.37;10.47;;;17.60;99.90;;;;;;4948459;28;20499;-83
2023/07/21 01:22:09;;;;;;;12.27;11.00;;;17.60;99.90;;;;;;4949475;29;20454;-83
2023/07/21 01:24:53;;;;;;;12.00;10.77;;;17.50;99.90;;;;;;4962797;28;20443;-83
2023/07/21 01:27:43;;;;;;;10.90;10.00;;;17.50;99.90;;;;;;4962764;29;20483;-84
2023/07/21 01:30:19;;;;;;;12.53;11.10;;;17.60;99.90;;;;;;4948890;29;20453;-83
2023/07/21 01:32:55;;;;;;;10.50;9.20;;;17.60;99.90;;;;;;4947238;28;20496;-83
2023/07/21 01:35:40;;;;;;;11.27;10.27;;;17.60;99.90;;;;;;4962501;28;20489;-83
2023/07/21 01:38:19;;;;;;;11.53;10.43;;;17.60;99.90;;;;;;4944096;29;20454;-83
2023/07/21 01:40:52;;;;;;;12.23;10.47;;;17.70;99.90;;;;;;4946910;28;20447;-83
2023/07/21 01:43:31;;;;;;;11.00;9.90;;;17.60;99.90;;;;;;4965075;28;20457;-83
2023/07/21 01:45:56;;;;;;;12.43;11.33;;;17.60;99.90;;;;;;4957910;28;20467;-83
2023/07/21 01:54:39;;;;;;;12.37;11.17;;;17.60;99.90;;;;;;4964973;28;20428;-83
2023/07/21 01:57:31;;;;;;;14.33;11.27;;;17.50;1.00;;;;;;4944637;29;20532;-83
2023/07/21 02:00:13;;;;;;;10.97;9.97;;;17.50;1.00;;;;;;4959945;29;20486;-84
2023/07/21 02:03:08;;;;;;;12.50;11.40;;;17.50;1.00;;;;;;4961089;28;20509;-84
2023/07/21 02:05:34;;;;;;;11.83;10.67;;;17.50;1.00;;;;;;4955864;28;20443;-83
2023/07/21 02:08:13;;;;;;;13.57;12.27;;;17.50;1.00;;;;;;4942116;29;20488;-83
2023/07/21 02:10:47;;;;;;;13.67;12.43;;;17.40;1.00;;;;;;4959530;28;20273;-83
2023/07/21 02:13:41;;;;;;;15.67;14.20;;;17.40;99.90;;;;;;4959775;28;20437;-84
2023/07/21 02:16:07;;;;;;;20.73;11.70;;;17.40;99.90;;;;;;4943017;29;20565;-84
2023/07/21 02:18:48;;;;;;;13.73;12.53;;;17.40;99.90;;;;;;4944616;28;20500;-83
2023/07/21 02:21:13;;;;;;;15.23;13.73;;;17.40;99.90;;;;;;4944349;29;20343;-84
2023/07/21 02:23:44;;;;;;;15.37;12.80;;;17.40;99.90;;;;;;4945483;28;20449;-84
2023/07/21 02:26:10;;;;;;;15.50;14.00;;;17.40;99.90;;;;;;4942951;29;20214;-83
2023/07/21 02:28:48;;;;;;;13.93;12.63;;;17.40;99.90;;;;;;4942788;28;20482;-84
2023/07/21 02:31:24;;;;;;;13.90;12.50;;;17.50;99.90;;;;;;4957611;28;20195;-84
2023/07/21 02:34:06;;;;;;;15.03;13.40;;;17.50;99.90;;;;;;4959235;28;20442;-84
2023/07/21 02:37:15;;;;;;;17.60;14.80;;;17.50;87.00;;;;;;4961434;28;20477;-84
2023/07/21 02:40:06;;;;;;;14.50;13.10;;;17.50;1.00;;;;;;4957307;28;20497;-83
2023/07/21 02:42:35;;;;;;;15.13;13.27;;;17.60;1.00;;;;;;4955561;29;20448;-83
2023/07/21 02:45:12;;;;;;;14.33;13.20;;;17.60;1.00;;;;;;4933961;29;20454;-82
2023/07/21 02:48:13;;;;;;;14.87;13.27;;;17.60;1.00;;;;;;4955893;28;20469;-84
2023/07/21 02:50:51;;;;;;;15.20;13.23;;;17.60;1.00;;;;;;4957699;28;20443;-83
2023/07/21 02:53:47;;;;;;;15.23;13.70;;;17.60;1.00;;;;;;4940513;29;20541;-83
2023/07/21 02:56:27;;;;;;;12.73;11.43;;;17.60;10.30;;;;;;4959412;28;20466;-84
2023/07/21 02:59:00;;;;;;;13.53;12.10;;;17.60;1.00;;;;;;4962734;28;20678;-84
2023/07/21 03:01:54;;;;;;;14.90;13.40;;;17.60;1.00;;;;;;4938580;29;20920;-83
2023/07/21 03:08:14;;;;;;;15.07;13.23;;;17.50;1.00;;;;;;4956837;29;20464;-83
2023/07/21 03:10:52;;;;;;;13.50;12.20;;;17.50;1.00;;;;;;4957499;28;20512;-84
2023/07/21 03:13:49;;;;;;;17.60;13.40;;;17.40;1.00;;;;;;4938017;29;20444;-83
2023/07/21 03:16:44;;;;;;;16.67;12.93;;;17.40;99.90;;;;;;4957517;28;20589;-84
2023/07/21 03:19:27;;;;;;;14.60;13.30;;;17.30;99.90;;;;;;4955695;29;20445;-83
2023/07/21 03:22:09;;;;;;;16.00;14.40;;;17.30;99.90;;;;;;4937454;28;20449;-84
2023/07/21 03:25:05;;;;;;;14.20;12.80;;;17.20;99.90;;;;;;4957762;28;20531;-84
2023/07/21 03:27:33;;;;;;;16.17;14.57;;;17.20;1.00;;;;;;4938584;29;20568;-83
2023/07/21 03:33:23;;;;;;;16.37;14.70;;;17.10;99.90;;;;;;4953656;28;20889;-84
2023/07/21 03:36:17;;;;;;;;;;;;;;;;;;;;;
2023/07/21 03:39:14;;;;;;;17.13;15.53;;;17.00;1.00;;;;;;4973972;28;20547;-86
2023/07/21 03:42:14;;;;;;;19.17;17.30;;;17.10;1.00;;;;;;4970699;28;20444;-83
2023/07/21 03:44:40;;;;;;;19.30;17.20;;;17.10;1.00;;;;;;4974301;28;20456;-83
2023/07/21 03:47:27;;;;;;;20.27;18.27;;;17.00;1.00;;;;;;4944801;28;20463;-82
2023/07/21 03:49:55;;;;;;;23.03;18.43;;;17.00;1.00;;;;;;4960979;28;20434;-83
2023/07/21 03:52:30;;;;;;;22.07;19.77;;;17.00;99.90;;;;;;4959426;28;20528;-83
2023/07/21 03:55:17;;;;;;;21.77;19.53;;;17.00;99.90;;;;;;4945701;28;20428;-83
2023/07/21 03:57:45;;;;;;;23.37;21.07;;;17.00;99.90;;;;;;4941678;28;20486;-83
2023/07/21 04:00:42;;;;;;;21.47;19.47;;;17.00;1.00;;;;;;4933956;29;20451;-84
2023/07/21 04:06:48;;;;;;;22.87;20.67;;;17.00;99.90;;;;;;4959516;28;20457;-83
2023/07/21 04:09:36;;;;;;;23.87;21.50;;;17.00;31.80;;;;;;4940119;29;20456;-84
2023/07/21 04:12:35;;;;;;;;;;;;;;;;;;;;;
2023/07/21 04:15:40;;;;;;;;;;;;;;;;;;;;;
2023/07/21 04:18:30;;;;;;;27.30;24.57;;;17.00;99.90;;;;;;4957325;28;20533;-84
2023/07/21 04:21:07;;;;;;;26.67;23.67;;;17.00;1.00;;;;;;4937824;28;20441;-84
2023/07/21 04:23:39;;;;;;;26.63;23.93;;;17.00;1.00;;;;;;4937181;29;20442;-84
2023/07/21 04:26:22;;;;;;;25.80;23.20;;;17.00;1.00;;;;;;4941030;28;20548;-84
2023/07/21 04:29:19;;;;;;;;;;;;;;;;;;;;;
2023/07/21 04:32:14;;;;;;;25.70;22.47;;;17.20;1.00;;;;;;4959042;28;20554;-84
2023/07/21 04:35:16;;;;;;;24.43;21.73;;;17.20;1.00;;;;;;4929915;29;20447;-84
2023/07/21 04:37:56;;;;;;;28.90;23.63;;;17.40;99.90;;;;;;4890176;29;20509;-84
2023/07/21 04:40:34;;;;;;;25.80;22.03;;;17.50;70.50;;;;;;4956922;28;20439;-84
2023/07/21 04:43:26;;;;;;;24.07;21.60;;;17.50;1.00;;;;;;4942053;28;20434;-84
2023/07/21 04:49:33;;;;;;;;;;;;;;;;;;;;;
2023/07/21 05:09:55;;;;;;;22.47;20.23;;;18.10;1.00;;;;;;4891588;29;20558;-84
2023/07/21 05:13:14;;;;;;;23.70;21.40;;;18.30;1.00;;;;;;4889374;29;20451;-84
2023/07/21 05:21:31;;;;;;;22.67;20.37;;;18.70;1.00;;;;;;4971023;28;20499;-84
2023/07/21 05:24:09;;;;;;;23.43;21.13;;;18.70;1.00;;;;;;4952257;28;20469;-83
2023/07/21 05:27:12;;;;;;;;;;;;;;;;;;;;;
2023/07/21 05:30:11;;;;;;;;;;;;;;;;;;;;;
2023/07/21 05:33:11;;;;;;;23.93;21.33;;;19.00;99.90;;;;;;4897952;29;20519;-84
2023/07/21 05:38:58;;;;;;;24.83;21.73;;;19.20;90.80;;;;;;4986072;28;20481;-84
2023/07/21 05:41:55;;;;;;;23.40;21.10;;;19.40;1.00;;;;;;4984760;28;20567;-84
2023/07/21 05:44:48;;;;;;;24.63;22.33;;;19.60;1.00;;;;;;4957109;28;20998;-84
2023/07/21 05:48:15;;;;;;;;;;;;;;;;;;;;;
2023/07/21 05:51:10;;;;;;;25.67;23.00;;;20.20;99.90;;;;;;4969699;28;20545;-84
2023/07/21 05:53:59;;;;;;;25.73;23.23;;;20.50;1.00;;;;;;4959366;28;20992;-84
2023/07/21 05:56:37;;;;;;;;;;;;;;;;;;;;;
2023/07/21 05:59:22;;;;;;;23.07;20.97;;;20.90;1.00;;;;;;4990952;28;20516;-85
2023/07/21 06:01:51;;;;;;;22.90;20.60;;;21.10;1.00;;;;;;4973820;28;20438;-84
2023/07/21 06:04:24;;;;;;;21.93;19.83;;;21.40;1.00;;;;;;4987172;28;20844;-85
2023/07/21 06:06:50;;;;;;;21.97;19.67;;;22.40;99.90;;;;;;4963637;28;20463;-85
2023/07/21 06:09:20;;;;;;;20.47;18.57;;;24.30;99.90;;;;;;4989247;28;20469;-84
2023/07/21 06:12:04;;;;;;;20.23;18.13;;;26.50;99.90;;;;;;4999560;28;20438;-84
2023/07/21 06:14:38;;;;;;;18.07;16.53;;;28.70;99.90;;;;;;4985425;28;20436;-84
2023/07/21 06:17:09;;;;;;;17.10;15.60;;;30.80;99.90;;;;;;4965015;28;21002;-83
2023/07/21 06:19:35;;;;;;;16.90;15.50;;;31.00;99.90;;;;;;4982038;28;20447;-82
2023/07/21 06:22:01;;;;;;;18.67;17.10;;;31.00;99.90;;;;;;4983583;28;20431;-83
2023/07/21 06:24:31;;;;;;;17.53;15.93;;;31.40;99.90;;;;;;4965969;28;21027;-83
2023/07/21 06:27:02;;;;;;;16.53;15.13;;;32.30;99.90;;;;;;4966925;28;20239;-83
2023/07/21 06:29:28;;;;;;;17.63;15.93;;;33.40;99.90;;;;;;4969784;28;20461;-84
2023/07/21 06:31:54;;;;;;;17.27;15.77;;;34.20;99.90;;;;;;4979009;28;20843;-84
2023/07/21 06:34:23;;;;;;;15.73;14.23;;;35.00;99.90;;;;;;4970750;28;20203;-83
2023/07/21 06:36:50;;;;;;;14.90;13.70;;;35.60;99.90;;;;;;4980291;28;20471;-85
2023/07/21 06:39:18;;;;;;;14.33;13.13;;;36.30;99.90;;;;;;4963661;28;20972;-84
2023/07/21 06:41:44;;;;;;;13.33;12.00;;;37.50;99.90;;;;;;4978854;28;20451;-85
2023/07/21 06:44:10;;;;;;;13.20;12.10;;;38.90;99.90;;;;;;4983381;28;20450;-85
2023/07/21 06:46:36;;;;;;;13.33;12.27;;;39.50;99.90;;;;;;4986817;28;20662;-84
2023/07/21 06:49:01;;;;;;;11.93;10.93;;;40.40;99.90;;;;;;4981631;28;20587;-84
2023/07/21 06:51:27;;;;;;;11.83;10.83;;;42.40;99.90;;;;;;4980310;28;20218;-84
2023/07/21 06:53:52;;;;;;;12.23;11.33;;;42.20;99.90;;;;;;4977518;28;20443;-84
2023/07/21 06:56:18;;;;;;;12.17;11.17;;;42.20;99.90;;;;;;4981333;28;20259;-84
2023/07/21 06:58:43;;;;;;;11.40;10.40;;;42.70;99.90;;;;;;4965410;28;20203;-85
2023/07/21 07:01:09;;;;;;;10.20;9.40;;;44.10;99.90;;;;;;4966719;28;20199;-83
2023/07/21 07:03:35;;;;;;;10.43;9.60;;;45.50;99.90;;;;;;4976330;28;20224;-83
2023/07/21 07:06:01;;;;;;;10.13;9.23;;;45.50;99.90;;;;;;4973994;28;20787;-85
2023/07/21 07:08:26;;;;;;;9.93;9.10;;;47.00;99.90;;;;;;4968335;28;20195;-85
2023/07/21 07:10:52;;;;;;;9.30;8.50;;;47.80;99.90;;;;;;4975343;28;20562;-85
2023/07/21 07:13:18;;;;;;;9.70;9.00;;;46.60;99.90;;;;;;4983067;28;20214;-84
2023/07/21 07:15:50;;;;;;;10.80;9.70;;;45.30;99.90;;;;;;4969753;28;20199;-85
2023/07/21 07:18:16;;;;;;;10.67;9.73;;;44.60;99.90;;;;;;4982191;28;20215;-84
2023/07/21 07:20:51;;;;;;;9.40;8.50;;;44.60;99.90;;;;;;4966617;28;20451;-85
2023/07/21 07:23:18;;;;;;;10.27;9.30;;;45.80;71.10;;;;;;4969447;28;20186;-85
2023/07/21 07:25:52;;;;;;;10.73;9.93;;;42.60;18.40;;;;;;4986797;28;20428;-85
2023/07/21 07:28:21;;;;;;;10.57;9.67;;;40.10;5.00;;;;;;4979043;28;20445;-85
2023/07/21 07:30:48;;;;;;;8.07;7.40;;;38.90;99.90;;;;;;4983307;28;20442;-85
2023/07/21 07:33:14;;;;;;;8.23;7.63;;;39.60;99.90;;;;;;4965548;28;20473;-85
2023/07/21 07:35:50;;;;;;;8.60;7.73;;;38.70;99.90;;;;;;4980810;28;20438;-85
2023/07/21 07:38:23;;;;;;;8.40;7.60;;;38.10;99.90;;;;;;4963373;28;20462;-85
2023/07/21 07:40:49;;;;;;;9.23;8.00;;;39.80;99.90;;;;;;4984053;28;20419;-83
2023/07/21 07:43:15;;;;;;;8.37;7.70;;;42.90;99.90;;;;;;4960002;28;20450;-84
2023/07/21 07:45:41;;;;;;;10.20;8.57;;;45.10;99.90;;;;;;4974757;28;20204;-84
2023/07/21 07:48:09;;;;;;;7.40;6.70;;;46.40;99.90;;;;;;4969591;28;20272;-84
2023/07/21 07:50:39;;;;;;;7.87;7.27;;;46.00;99.90;;;;;;4980783;28;20727;-83
2023/07/21 07:53:08;;;;;;;7.83;7.03;;;44.10;99.90;;;;;;4966341;28;20446;-83
2023/07/21 07:55:41;;;;;;;7.63;7.10;;;42.30;99.90;;;;;;4963805;28;20497;-83
2023/07/21 07:58:08;;;;;;;7.20;6.70;;;40.40;99.90;;;;;;4979385;28;20551;-83
2023/07/21 08:00:38;;;;;;;7.90;7.10;;;38.60;99.90;;;;;;4979488;28;20467;-83
2023/07/21 08:03:11;;;;;;;8.37;7.67;;;37.00;99.90;;;;;;4982627;28;20483;-83
2023/07/21 08:05:38;;;;;;;9.33;7.20;;;35.40;99.90;;;;;;4959375;28;20439;-83
2023/07/21 08:08:04;;;;;;;8.50;7.20;;;34.00;99.90;;;;;;4967818;28;20518;-83
2023/07/21 08:10:34;;;;;;;8.33;7.57;;;32.80;99.90;;;;;;4976358;28;20442;-83
2023/07/21 08:13:04;;;;;;;9.07;7.37;;;31.90;99.90;;;;;;4973633;28;20447;-83
2023/07/21 08:15:30;;;;;;;8.90;8.00;;;31.40;99.90;;;;;;4989467;28;20469;-83
2023/07/21 08:17:55;;;;;;;9.47;8.20;;;30.90;99.90;;;;;;4977932;28;20930;-83
2023/07/21 08:20:21;;;;;;;7.47;6.80;;;30.90;99.90;;;;;;4990342;28;20470;-83
2023/07/21 08:22:47;;;;;;;7.17;6.57;;;30.80;99.90;;;;;;4973309;28;20183;-83
2023/07/21 08:25:13;;;;;;;7.10;6.50;;;30.50;99.90;;;;;;4985084;28;20184;-83
2023/07/21 08:27:42;;;;;;;8.83;7.93;;;30.60;99.90;;;;;;4979514;28;20450;-83
2023/07/21 08:30:08;;;;;;;7.67;7.00;;;31.30;99.90;;;;;;4976510;28;20458;-83
2023/07/21 08:32:36;;;;;;;11.40;7.43;;;32.00;99.90;;;;;;4988727;28;20411;-83
2023/07/21 08:35:01;;;;;;;8.60;6.47;;;32.40;99.90;;;;;;4970648;28;20492;-82
2023/07/21 08:37:27;;;;;;;7.30;6.67;;;32.60;99.90;;;;;;4956410;28;20475;-83
2023/07/21 08:39:52;;;;;;;7.33;6.40;;;33.30;99.90;;;;;;4977590;28;20546;-83
2023/07/21 08:42:18;;;;;;;6.23;5.63;;;35.90;99.90;;;;;;4982105;28;20219;-83
2023/07/21 08:44:44;;;;;;;4.70;4.13;;;38.30;99.90;;;;;;4963928;28;20649;-83
2023/07/21 08:47:10;;;;;;;4.50;4.10;;;39.90;99.90;;;;;;4974346;28;20482;-83
2023/07/21 08:49:39;;;;;;;4.63;4.23;;;39.50;99.90;;;;;;4972370;28;20716;-83
2023/07/21 08:52:04;;;;;;;7.70;4.83;;;39.70;99.90;;;;;;4956271;28;20439;-83
2023/07/21 08:54:30;;;;;;;5.00;4.60;;;38.70;99.90;;;;;;4972291;28;20431;-83
2023/07/21 08:56:55;;;;;;;9.63;5.70;;;38.20;99.90;;;;;;4975526;28;20216;-83
2023/07/21 08:59:23;;;;;;;4.47;4.07;;;39.30;99.90;;;;;;4971115;28;20725;-83
2023/07/21 09:01:49;;;;;;;5.20;4.70;;;40.10;99.90;;;;;;4979488;28;20268;-83
2023/07/21 09:04:25;;;;;;;5.57;5.03;;;39.80;99.90;;;;;;4979873;28;20448;-84
2023/07/21 09:06:59;;;;;;;5.57;5.03;;;39.00;99.90;;;;;;4986033;28;20195;-84
2023/07/21 09:09:27;;;;;;;5.50;5.10;;;40.00;99.90;;;;;;4986003;28;20419;-84
2023/07/21 09:12:04;;;;;;;5.90;5.40;;;39.10;99.90;;;;;;4956768;28;20420;-84
2023/07/21 09:14:41;;;;;;;6.17;5.53;;;38.80;99.90;;;;;;4981860;28;20465;-83
2023/07/21 09:17:08;;;;;;;5.47;5.07;;;38.90;99.90;;;;;;4961840;28;20968;-84
2023/07/21 09:19:39;;;;;;;5.13;4.20;;;40.70;99.90;;;;;;4981318;28;20439;-84
2023/07/21 09:22:11;;;;;;;9.00;4.07;;;42.50;99.90;;;;;;4970510;28;20940;-84
2023/07/21 09:28:06;;;;;;;5.40;5.00;;;45.20;99.90;;;;;;4984940;28;20463;-84
2023/07/21 09:30:32;;;;;;;5.03;4.47;;;46.30;99.90;;;;;;4978879;28;20943;-84
2023/07/21 09:32:58;;;;;;;6.13;5.63;;;46.60;99.90;;;;;;4982625;28;20431;-84
2023/07/21 09:35:24;;;;;;;5.63;4.90;;;45.00;99.90;;;;;;4968370;28;20188;-85
2023/07/21 09:37:58;;;;;;;6.50;5.90;;;44.10;99.90;;;;;;4983351;28;20218;-83
2023/07/21 09:40:32;;;;;;;4.90;4.50;;;42.40;49.10;;;;;;4975277;28;20415;-84
2023/07/21 09:43:01;;;;;;;6.10;4.40;;;41.80;4.80;;;;;;4975437;28;20415;-83
2023/07/21 09:45:29;;;;;;;5.30;4.80;;;41.80;90.80;;;;;;4965854;28;20427;-83
2023/07/21 09:48:00;;;;;;;7.93;4.80;;;41.10;91.30;;;;;;4959920;28;20503;-83
2023/07/21 09:50:26;;;;;;;5.07;4.50;;;40.50;75.70;;;;;;4966016;28;20443;-83
2023/07/21 09:52:58;;;;;;;4.80;4.30;;;40.70;28.30;;;;;;4959616;28;21048;-83
2023/07/21 09:55:26;;;;;;;4.10;3.70;;;41.00;34.00;;;;;;4978364;28;20544;-83
2023/07/21 09:58:02;;;;;;;4.63;3.13;;;40.80;32.10;;;;;;4965017;28;20479;-84
2023/07/21 10:00:44;;;;;;;4.60;3.40;;;41.30;32.60;;;;;;4967242;28;20869;-84
2023/07/21 10:03:55;;;;;;;4.07;3.77;;;42.10;33.70;;;;;;4984492;28;20431;-84
2023/07/21 10:06:45;;;;;;;4.20;3.90;;;42.50;31.20;;;;;;4971470;28;20519;-83
2023/07/21 10:09:16;;;;;;;3.70;3.33;;;42.00;30.00;;;;;;4974808;28;20470;-83
2023/07/21 10:15:33;;;;;;;3.80;3.50;;;41.80;32.30;;;;;;4990893;28;20417;-83
2023/07/21 10:18:01;;;;;;;4.03;3.73;;;41.80;28.90;;;;;;4984364;28;20446;-84
2023/07/21 10:20:56;;;;;;;4.10;3.80;;;41.40;29.90;;;;;;4975215;28;20481;-83
2023/07/21 10:23:51;;;;;;;5.10;4.60;;;41.70;31.30;;;;;;4968913;28;20440;-83
2023/07/21 10:26:28;;;;;;;5.40;4.10;;;41.90;33.80;;;;;;4990175;28;20442;-84
2023/07/21 10:29:24;;;;;;;4.23;3.83;;;41.10;99.90;;;;;;4964889;28;20467;-83
2023/07/21 10:31:54;;;;;;;4.80;3.30;;;41.40;99.90;;;;;;4988538;28;20432;-82
2023/07/21 10:34:36;;;;;;;5.17;4.67;;;42.70;99.90;;;;;;5008127;28;20446;-81
2023/07/21 10:37:26;;;;;;;3.40;3.10;;;43.00;99.90;;;;;;4995746;28;20554;-82
2023/07/21 10:40:07;;;;;;;3.87;3.40;;;42.20;99.90;;;;;;4984564;28;20458;-82
2023/07/21 10:49:09;;;;;;;3.90;2.70;;;38.10;99.90;;;;;;4990831;28;20835;-82
2023/07/21 10:51:54;;;;;;;4.50;4.00;;;37.60;99.90;;;;;;4992424;28;20431;-82
2023/07/21 10:57:59;;;;;;;2.97;2.60;;;36.70;99.90;;;;;;4995483;28;20466;-82
2023/07/21 11:00:25;;;;;;;6.90;3.57;;;35.80;99.90;;;;;;4978201;28;20517;-82
2023/07/21 11:03:09;;;;;;;4.80;4.00;;;34.90;99.90;;;;;;4987497;28;20432;-81
2023/07/21 11:05:41;;;;;;;5.77;4.47;;;33.90;99.90;;;;;;4976935;28;20959;-81
2023/07/21 11:08:29;;;;;;;3.90;3.50;;;33.00;99.90;;;;;;4988570;28;20494;-81
2023/07/21 11:11:24;;;;;;;4.33;3.90;;;32.20;99.90;;;;;;4998442;28;20897;-82
2023/07/21 11:17:36;;;;;;;;;;;;;;;;;;;;;
2023/07/21 11:20:16;;;;;;;7.90;5.23;;;30.50;99.90;;;;;;4996973;28;20513;-85
2023/07/21 11:22:42;;;;;;;9.47;5.23;;;30.80;99.90;;;;;;4982756;28;20451;-85
2023/07/21 11:25:10;;;;;;;5.23;4.80;;;31.00;99.90;;;;;;4967105;28;20427;-85
2023/07/21 11:27:45;;;;;;;5.07;4.60;;;31.30;99.90;;;;;;4966298;28;20226;-83
2023/07/21 11:30:22;;;;;;;5.70;4.53;;;33.10;99.90;;;;;;4959143;28;20827;-83
2023/07/21 11:33:15;;;;;;;4.60;2.93;;;34.40;99.90;;;;;;4973363;28;20435;-83
2023/07/21 11:35:51;;;;;;;4.93;3.40;;;35.90;99.90;;;;;;4983877;28;20435;-83
2023/07/21 11:38:40;;;;;;;3.77;2.20;;;37.10;99.90;;;;;;4970913;28;20442;-83
2023/07/21 11:41:15;;;;;;;3.00;2.67;;;37.90;99.90;;;;;;4973354;28;20999;-83
2023/07/21 11:43:55;;;;;;;3.13;2.37;;;37.50;99.90;;;;;;4989433;28;20496;-83
2023/07/21 11:46:29;;;;;;;3.57;2.70;;;37.10;99.90;;;;;;4969613;28;20459;-83
2023/07/21 11:48:58;;;;;;;7.47;3.70;;;37.60;99.90;;;;;;4985488;28;21119;-83
2023/07/21 11:51:37;;;;;;;;;;;;;;;;;;;;;
2023/07/21 11:54:10;;;;;;;2.90;2.63;;;38.00;99.90;;;;;;4981799;28;20437;-84
2023/07/21 11:56:42;;;;;;;2.43;2.17;;;37.90;99.90;;;;;;4985811;28;20477;-83
2023/07/21 11:59:22;;;;;;;2.77;1.70;;;38.20;99.90;;;;;;4987193;28;20482;-84
2023/07/21 12:01:53;;;;;;;2.40;2.20;;;38.60;99.90;;;;;;4987748;28;20445;-83
2023/07/21 12:04:26;;;;;;;3.13;2.67;;;38.60;99.90;;;;;;4982967;28;20450;-83
2023/07/21 12:07:00;;;;;;;2.60;2.30;;;38.80;99.90;;;;;;4980020;28;20529;-84
2023/07/21 12:09:26;;;;;;;3.17;2.30;;;38.70;99.90;;;;;;4985503;28;20974;-83
2023/07/21 12:11:56;;;;;;;2.67;2.20;;;37.40;99.90;;;;;;5007983;28;20438;-85
2023/07/21 12:14:24;;;;;;;5.00;1.70;;;35.90;99.90;;;;;;4972977;28;20510;-83
2023/07/21 12:16:53;;;;;;;2.30;1.73;;;35.00;99.90;;;;;;4982527;28;20451;-83
2023/07/21 12:19:19;;;;;;;2.90;2.10;;;34.10;99.90;;;;;;4962186;28;20523;-83
2023/07/21 12:21:45;;;;;;;3.00;1.83;;;33.20;99.90;;;;;;4989605;28;20466;-83
2023/07/21 12:24:11;;;;;;;2.57;1.60;;;32.60;99.90;;;;;;5000669;28;20190;-83
2023/07/21 12:26:36;;;;;;;2.67;1.53;;;32.60;99.90;;;;;;4996330;28;20455;-82
2023/07/21 12:29:02;;;;;;;2.80;1.57;;;32.10;99.90;;;;;;4988213;28;20466;-83
2023/07/21 12:31:28;;;;;;;2.93;1.73;;;31.70;99.90;;;;;;4978876;28;20184;-84
2023/07/21 12:33:54;;;;;;;12.57;3.93;;;31.20;99.90;;;;;;4995488;28;20427;-83
2023/07/21 12:36:20;;;;;;;10.07;3.73;;;30.50;99.90;;;;;;4983910;28;20203;-82
2023/07/21 12:38:46;;;;;;;6.57;3.37;;;29.50;99.90;;;;;;4977019;28;20242;-83
2023/07/21 12:41:12;;;;;;;6.30;4.50;;;28.50;99.90;;;;;;4989912;28;20180;-83
2023/07/21 12:43:38;;;;;;;6.70;3.83;;;27.50;99.90;;;;;;4992818;28;20446;-83
2023/07/21 12:46:05;;;;;;;4.10;2.97;;;26.70;99.90;;;;;;4985672;28;20466;-82
2023/07/21 12:48:32;;;;;;;6.90;3.17;;;26.00;99.90;;;;;;4986457;28;20475;-82
2023/07/21 12:50:58;;;;;;;5.00;3.27;;;25.00;99.90;;;;;;5002732;28;20446;-84
2023/07/21 12:53:23;;;;;;;3.87;3.37;;;24.50;99.90;;;;;;4995228;28;20449;-83
2023/07/21 12:55:50;;;;;;;4.30;3.60;;;23.90;99.90;;;;;;4968743;28;20206;-82
2023/07/21 12:58:17;;;;;;;4.67;3.83;;;23.60;99.90;;;;;;4987021;28;20209;-85
2023/07/21 13:00:43;;;;;;;8.50;4.00;;;23.20;99.90;;;;;;4968466;28;20442;-85
2023/07/21 13:03:09;;;;;;;4.60;4.20;;;23.10;99.90;;;;;;4974444;28;20535;-84
2023/07/21 13:05:34;;;;;;;5.00;3.10;;;22.70;99.90;;;;;;4972990;28;21125;-85
2023/07/21 13:08:00;;;;;;;3.87;3.57;;;22.40;99.90;;;;;;4971191;28;20218;-85
2023/07/21 13:10:25;;;;;;;6.20;3.43;;;22.20;99.90;;;;;;4995593;28;20199;-86
2023/07/21 13:12:51;;;;;;;4.50;4.10;;;22.00;99.90;;;;;;4981009;28;20205;-83
2023/07/21 13:15:16;;;;;;;3.67;3.30;;;21.80;99.90;;;;;;4976358;28;20195;-84
2023/07/21 13:17:42;;;;;;;3.63;3.10;;;21.70;99.90;;;;;;4974465;28;20216;-85
2023/07/21 13:20:13;;;;;;;3.97;2.87;;;21.60;99.90;;;;;;4983866;28;20194;-84
2023/07/21 13:22:44;;;;;;;3.17;2.87;;;21.40;99.90;;;;;;4966367;28;20225;-84
2023/07/21 13:25:10;;;;;;;2.57;2.20;;;21.30;99.90;;;;;;4975389;28;20982;-85
2023/07/21 13:27:39;;;;;;;4.70;2.50;;;21.30;99.90;;;;;;4982675;28;20468;-85
2023/07/21 13:30:09;;;;;;;2.93;2.37;;;21.50;99.90;;;;;;4988975;28;20315;-85
2023/07/21 13:33:06;;;;;;;2.20;2.00;;;21.50;99.90;;;;;;4983360;28;20431;-85
2023/07/21 13:35:38;;;;;;;3.20;2.53;;;21.70;99.90;;;;;;4975273;28;20477;-85
2023/07/21 13:38:13;;;;;;;3.37;2.37;;;21.80;99.90;;;;;;4972595;28;20867;-84
2023/07/21 13:40:38;;;;;;;5.30;2.40;;;21.90;99.90;;;;;;4995579;28;20868;-85
2023/07/21 13:43:28;;;;;;;;;;;;;;;;;;;;;
2023/07/21 14:06:55;;;;;;;3.20;2.70;;;21.60;99.90;;;;;;4983472;26;20508;-83
2023/07/21 14:09:25;;;;;;;3.87;3.03;;;21.60;99.90;;;;;;4997549;28;20555;-83
2023/07/21 14:12:04;;;;;;;7.30;3.20;;;21.60;99.90;;;;;;4976810;28;20439;-83
2023/07/21 14:15:12;;;;;;;5.10;4.50;;;21.50;99.90;;;;;;4979957;28;20562;-83
2023/07/21 14:18:22;;;;;;;4.43;4.03;;;21.40;99.90;;;;;;4906733;28;20480;-83
2023/07/21 14:21:15;;;;;;;5.37;4.57;;;21.20;99.90;;;;;;4970927;28;20467;-83
2023/07/21 14:23:49;;;;;;;4.60;4.20;;;21.10;99.90;;;;;;4971864;28;20521;-83
2023/07/21 14:26:23;;;;;;;4.23;3.80;;;21.10;99.90;;;;;;4995799;28;20474;-84
2023/07/21 14:32:21;;;;;;;;;;;;;;;;;;;;;
2023/07/21 14:35:45;;;;;;;;;;;;;;;;;;;;;
2023/07/21 14:38:11;;;;;;;4.20;3.60;;;21.50;99.90;;;;;;4989244;28;20576;-84
2023/07/21 14:41:02;;;;;;;;;;;;;;;;;;;;;
2023/07/21 14:44:00;;;;;;;4.70;3.60;;;21.50;99.90;;;;;;4994388;28;20288;-85
2023/07/21 14:46:26;;;;;;;4.73;3.47;;;21.50;99.90;;;;;;4988079;28;20487;-83
2023/07/21 14:48:54;;;;;;;3.20;2.90;;;21.60;99.90;;;;;;4994120;28;20868;-84
2023/07/21 14:51:41;;;;;;;3.70;3.40;;;21.50;99.90;;;;;;5000924;28;20444;-84
2023/07/21 14:54:49;;;;;;;4.20;2.87;;;21.50;99.90;;;;;;4976036;28;20444;-86
2023/07/21 15:01:24;;;;;;;3.87;3.57;;;21.50;99.90;;;;;;4931648;29;20459;-84
2023/07/21 15:04:10;;;;;;;3.37;2.90;;;21.60;99.90;;;;;;4883897;29;20443;-84
2023/07/21 15:06:55;;;;;;;3.87;2.50;;;21.80;99.90;;;;;;4968210;28;20572;-84
2023/07/21 15:09:43;;;;;;;;;;;;;;;;;;;;;
2023/07/21 15:12:12;;;;;;;4.27;3.87;;;22.10;99.90;;;;;;4993435;28;20882;-84
2023/07/21 15:14:44;;;;;;;5.00;3.30;;;22.30;99.90;;;;;;4991520;28;20702;-84
2023/07/21 15:17:10;;;;;;;5.00;3.80;;;22.50;99.90;;;;;;4993887;28;20458;-84
2023/07/21 15:19:51;;;;;;;3.97;3.67;;;22.90;99.90;;;;;;4977254;28;20432;-84
2023/07/21 15:22:34;;;;;;;4.97;4.10;;;23.30;99.90;;;;;;4992201;28;20243;-84
2023/07/21 15:29:10;;;;;;;5.23;4.73;;;23.40;99.90;;;;;;4912970;29;20484;-85
2023/07/21 15:35:49;;;;;;;6.77;5.03;;;23.50;99.90;;;;;;4925104;29;20436;-85
2023/07/21 15:38:18;;;;;;;6.83;5.70;;;23.50;99.90;;;;;;4914921;28;20475;-84